Time;durP1;ratioP1;P1;durP2;ratioP2;P2;SDS_P1;SDS_P2;PMS_P1;PMS_P2;Temp;Humidity;BMP_temperature;BMP_pressure;BME280_temperature;BME280_humidity;BME280_pressure;Samples;Min_cycle;Max_cycle;Signal;HPM_P1;HPM_P2
2022/05/30 00:00:22;;;;;;;3.92;2.72;;;;;;;;;;10446829;28;20190;-74
2022/05/30 00:05:24;;;;;;;5.32;2.30;;;;;;;;;;10434371;28;20325;-74
2022/05/30 00:10:26;;;;;;;6.32;2.20;;;;;;;;;;10427958;28;20233;-74
2022/05/30 00:15:27;;;;;;;5.15;2.10;;;;;;;;;;10433479;28;20214;-73
2022/05/30 00:20:29;;;;;;;10.23;3.22;;;;;;;;;;10445442;28;20191;-73
2022/05/30 00:25:30;;;;;;;6.28;2.17;;;;;;;;;;10404720;28;20650;-73
2022/05/30 00:30:31;;;;;;;10.02;2.22;;;;;;;;;;10444941;28;20212;-73
2022/05/30 00:35:32;;;;;;;9.02;2.20;;;;;;;;;;10449445;28;20309;-73
2022/05/30 00:40:34;;;;;;;4.63;2.42;;;;;;;;;;10457059;28;20289;-73
2022/05/30 00:45:35;;;;;;;5.68;2.13;;;;;;;;;;10447537;28;20195;-74
2022/05/30 00:50:37;;;;;;;9.38;2.90;;;;;;;;;;10419158;28;20207;-74
2022/05/30 00:55:38;;;;;;;6.10;3.40;;;;;;;;;;10436098;28;20248;-74
2022/05/30 01:00:39;;;;;;;6.95;2.85;;;;;;;;;;10453416;28;20206;-74
2022/05/30 01:11:01;;;;;;;6.93;2.33;;;;;;;;;;10455960;28;20194;-74
2022/05/30 01:16:02;;;;;;;6.55;2.20;;;;;;;;;;10431881;28;20839;-74
2022/05/30 01:21:19;;;;;;;2.38;2.10;;;;;;;;;;10459310;28;20186;-75
2022/05/30 01:26:23;;;;;;;8.80;2.08;;;;;;;;;;10398902;28;20225;-74
2022/05/30 01:31:30;;;;;;;8.30;2.47;;;;;;;;;;10431566;28;20788;-74
2022/05/30 01:36:33;;;;;;;7.20;2.70;;;;;;;;;;10450513;28;20234;-74
2022/05/30 01:41:35;;;;;;;4.95;2.08;;;;;;;;;;10412726;28;20488;-74
2022/05/30 01:46:38;;;;;;;6.57;2.10;;;;;;;;;;10411092;28;20213;-74
2022/05/30 01:51:40;;;;;;;5.60;2.38;;;;;;;;;;10445035;28;20202;-74
2022/05/30 01:56:44;;;;;;;5.20;2.67;;;;;;;;;;10424088;28;20210;-74
2022/05/30 02:01:45;;;;;;;5.60;2.75;;;;;;;;;;10413513;28;20859;-74
2022/05/30 02:06:48;;;;;;;8.45;2.55;;;;;;;;;;10402141;28;20323;-74
2022/05/30 02:11:49;;;;;;;8.70;2.53;;;;;;;;;;10442658;28;20205;-74
2022/05/30 02:17:04;;;;;;;9.00;2.58;;;;;;;;;;10422328;28;20202;-74
2022/05/30 02:22:06;;;;;;;9.90;2.35;;;;;;;;;;10430049;28;20225;-74
2022/05/30 02:27:09;;;;;;;8.27;2.78;;;;;;;;;;10432718;28;20768;-74
2022/05/30 02:32:10;;;;;;;7.85;2.60;;;;;;;;;;10438670;28;20776;-74
2022/05/30 02:37:13;;;;;;;7.93;2.00;;;;;;;;;;10430135;28;20217;-74
2022/05/30 02:42:16;;;;;;;8.52;2.25;;;;;;;;;;10428019;28;20200;-74
2022/05/30 02:47:17;;;;;;;8.40;2.45;;;;;;;;;;10429175;28;20264;-73
2022/05/30 02:52:25;;;;;;;5.70;1.95;;;;;;;;;;10424261;28;20202;-74
2022/05/30 02:57:27;;;;;;;8.10;2.05;;;;;;;;;;10422917;28;20300;-73
2022/05/30 03:02:28;;;;;;;8.27;2.25;;;;;;;;;;10442248;28;20218;-74
2022/05/30 03:07:30;;;;;;;3.78;2.20;;;;;;;;;;10437987;28;20226;-75
2022/05/30 03:12:33;;;;;;;11.00;2.40;;;;;;;;;;10417418;28;20271;-74
2022/05/30 03:17:34;;;;;;;7.38;1.98;;;;;;;;;;10437914;28;20264;-75
2022/05/30 03:22:35;;;;;;;11.73;2.20;;;;;;;;;;10460734;28;21253;-74
2022/05/30 03:27:55;;;;;;;9.48;2.40;;;;;;;;;;10452885;28;20261;-75
2022/05/30 03:32:58;;;;;;;10.65;1.92;;;;;;;;;;10440324;28;20220;-74
2022/05/30 03:38:00;;;;;;;5.50;1.63;;;;;;;;;;10445120;28;20199;-74
2022/05/30 03:43:36;;;;;;;11.40;1.63;;;;;;;;;;10443309;28;20214;-74
2022/05/30 03:48:37;;;;;;;7.55;1.67;;;;;;;;;;10425874;28;20214;-74
2022/05/30 03:53:38;;;;;;;7.93;2.03;;;;;;;;;;10415016;28;20209;-74
2022/05/30 03:58:40;;;;;;;4.82;1.65;;;;;;;;;;10428237;28;20890;-74
2022/05/30 04:03:41;;;;;;;5.90;1.90;;;;;;;;;;10416213;28;20257;-74
2022/05/30 04:08:44;;;;;;;7.20;1.73;;;;;;;;;;10441449;28;20276;-74
2022/05/30 04:14:21;;;;;;;8.10;1.92;;;;;;;;;;10346504;28;20221;-73
2022/05/30 04:19:35;;;;;;;8.07;2.00;;;;;;;;;;10433428;28;20876;-74
2022/05/30 04:24:36;;;;;;;10.38;2.85;;;;;;;;;;10414389;28;20197;-74
2022/05/30 04:29:40;;;;;;;7.05;2.47;;;;;;;;;;10436958;28;20917;-75
2022/05/30 04:34:52;;;;;;;4.43;1.48;;;;;;;;;;10411565;28;20216;-76
2022/05/30 04:39:53;;;;;;;5.15;2.13;;;;;;;;;;10406206;28;20197;-75
2022/05/30 04:45:13;;;;;;;9.25;2.17;;;;;;;;;;10439567;28;20690;-75
2022/05/30 04:50:29;;;;;;;7.90;2.28;;;;;;;;;;10438827;28;20204;-76
2022/05/30 04:55:30;;;;;;;14.75;1.95;;;;;;;;;;10410685;28;20777;-75
2022/05/30 05:00:32;;;;;;;12.20;1.92;;;;;;;;;;10402883;28;20659;-75
2022/05/30 05:05:34;;;;;;;7.40;1.52;;;;;;;;;;10411578;28;20310;-75
2022/05/30 05:10:47;;;;;;;5.55;1.27;;;;;;;;;;10394608;28;20671;-74
2022/05/30 05:16:15;;;;;;;9.70;2.45;;;;;;;;;;10411207;28;20304;-74
2022/05/30 05:21:18;;;;;;;5.32;1.27;;;;;;;;;;10407036;28;20206;-74
2022/05/30 05:26:20;;;;;;;10.35;2.00;;;;;;;;;;10420299;28;20355;-75
2022/05/30 05:31:45;;;;;;;5.90;1.65;;;;;;;;;;10417394;28;20221;-75
2022/05/30 05:36:47;;;;;;;8.02;1.48;;;;;;;;;;10405197;28;20213;-75
2022/05/30 05:41:49;;;;;;;6.78;1.25;;;;;;;;;;10405249;28;20229;-76
2022/05/30 05:46:50;;;;;;;5.57;1.48;;;;;;;;;;10430490;28;20195;-75
2022/05/30 05:51:54;;;;;;;5.55;1.10;;;;;;;;;;10409678;28;20803;-75
2022/05/30 05:56:56;;;;;;;12.27;1.58;;;;;;;;;;10410538;28;20722;-76
2022/05/30 06:02:06;;;;;;;9.40;1.35;;;;;;;;;;10422682;28;20210;-75
2022/05/30 06:07:07;;;;;;;3.45;1.52;;;;;;;;;;10429351;28;20333;-75
2022/05/30 06:12:42;;;;;;;4.60;1.58;;;;;;;;;;10414751;28;20215;-74
2022/05/30 06:17:44;;;;;;;8.70;1.50;;;;;;;;;;10392932;28;20310;-74
2022/05/30 06:22:45;;;;;;;10.25;1.60;;;;;;;;;;10415771;28;20234;-74
2022/05/30 06:28:06;;;;;;;3.78;1.27;;;;;;;;;;10413572;28;20206;-76
2022/05/30 06:33:16;;;;;;;7.60;2.17;;;;;;;;;;10403664;28;20210;-75
2022/05/30 06:38:25;;;;;;;1.83;1.40;;;;;;;;;;10419694;28;20297;-76
2022/05/30 06:43:39;;;;;;;4.65;1.60;;;;;;;;;;10413759;28;20198;-75
2022/05/30 06:48:46;;;;;;;6.13;1.80;;;;;;;;;;10439465;28;21035;-76
2022/05/30 06:54:09;;;;;;;7.68;1.88;;;;;;;;;;10420561;28;20210;-75
2022/05/30 06:59:10;;;;;;;6.40;1.55;;;;;;;;;;10422993;28;20782;-76
2022/05/30 07:04:13;;;;;;;4.20;1.42;;;;;;;;;;10423664;28;20304;-76
2022/05/30 07:09:38;;;;;;;6.32;1.45;;;;;;;;;;10390221;28;21335;-75
2022/05/30 07:14:54;;;;;;;6.00;1.30;;;;;;;;;;10406107;28;20294;-76
2022/05/30 07:19:57;;;;;;;4.70;0.70;;;;;;;;;;10424083;28;20199;-75
2022/05/30 07:25:03;;;;;;;5.97;0.90;;;;;;;;;;10404521;28;20317;-76
2022/05/30 07:30:16;;;;;;;3.75;1.05;;;;;;;;;;10432418;28;20215;-76
2022/05/30 07:35:36;;;;;;;4.20;1.02;;;;;;;;;;10431997;28;20852;-76
2022/05/30 07:41:16;;;;;;;0.80;0.65;;;;;;;;;;10290980;28;20209;-76
2022/05/30 07:46:25;;;;;;;2.30;0.80;;;;;;;;;;10365589;28;20284;-76
2022/05/30 07:51:49;;;;;;;2.83;0.75;;;;;;;;;;10403489;28;20206;-77
2022/05/30 07:57:00;;;;;;;8.13;1.10;;;;;;;;;;10405966;28;20582;-76
2022/05/30 08:02:04;;;;;;;2.15;0.90;;;;;;;;;;10408329;28;20293;-75
2022/05/30 08:07:05;;;;;;;1.67;0.75;;;;;;;;;;10399691;28;20233;-75
2022/05/30 08:12:43;;;;;;;2.53;0.70;;;;;;;;;;10396568;28;20296;-74
2022/05/30 08:18:00;;;;;;;4.57;0.60;;;;;;;;;;10405575;28;20899;-75
2022/05/30 08:23:02;;;;;;;4.65;0.90;;;;;;;;;;10410397;28;20296;-77
2022/05/30 08:28:03;;;;;;;4.72;1.40;;;;;;;;;;10422016;28;20218;-77
2022/05/30 08:33:09;;;;;;;2.95;0.85;;;;;;;;;;10414440;28;20217;-78
2022/05/30 08:38:42;;;;;;;2.80;0.80;;;;;;;;;;10443456;28;20209;-77
2022/05/30 08:43:52;;;;;;;5.35;1.27;;;;;;;;;;10424480;28;20198;-77
2022/05/30 08:49:13;;;;;;;5.13;0.90;;;;;;;;;;10427849;28;20214;-76
2022/05/30 08:54:20;;;;;;;5.40;1.10;;;;;;;;;;10430915;28;20214;-77
2022/05/30 08:59:41;;;;;;;5.80;0.82;;;;;;;;;;10426774;28;20216;-77
2022/05/30 09:04:52;;;;;;;6.82;1.10;;;;;;;;;;10427269;28;20230;-77
2022/05/30 09:10:05;;;;;;;2.67;0.82;;;;;;;;;;10408311;28;20232;-77
2022/05/30 09:15:19;;;;;;;4.15;0.70;;;;;;;;;;10453513;28;20244;-77
2022/05/30 09:20:23;;;;;;;4.47;0.90;;;;;;;;;;10462420;28;20197;-76
2022/05/30 09:31:27;;;;;;;2.75;0.70;;;;;;;;;;10441759;28;20336;-76
2022/05/30 09:36:51;;;;;;;7.93;1.10;;;;;;;;;;10458366;28;20221;-77
2022/05/30 09:42:19;;;;;;;8.40;1.33;;;;;;;;;;10410600;28;20202;-77
2022/05/30 09:47:22;;;;;;;3.58;0.73;;;;;;;;;;10405141;28;20259;-77
2022/05/30 09:52:46;;;;;;;1.77;0.77;;;;;;;;;;10433608;28;20238;-76
2022/05/30 09:57:59;;;;;;;6.07;1.08;;;;;;;;;;10393074;28;20206;-78
2022/05/30 10:03:28;;;;;;;5.38;0.90;;;;;;;;;;10422785;28;20222;-77
2022/05/30 10:08:43;;;;;;;3.47;0.68;;;;;;;;;;10408599;28;20226;-77
2022/05/30 10:13:51;;;;;;;7.07;0.80;;;;;;;;;;10433290;28;20690;-78
2022/05/30 10:19:21;;;;;;;1.65;0.60;;;;;;;;;;10428164;28;20303;-76
2022/05/30 10:30:29;;;;;;;2.00;0.75;;;;;;;;;;10413184;28;20254;-77
2022/05/30 10:35:57;;;;;;;1.15;0.40;;;;;;;;;;10433875;28;20338;-77
2022/05/30 10:41:09;;;;;;;1.88;0.63;;;;;;;;;;10407201;28;20202;-79
2022/05/30 10:46:13;;;;;;;1.58;0.45;;;;;;;;;;10417322;28;20203;-78
2022/05/30 10:51:22;;;;;;;4.18;0.57;;;;;;;;;;10415525;28;20229;-78
2022/05/30 10:56:31;;;;;;;2.75;0.70;;;;;;;;;;10411366;28;20274;-77
2022/05/30 11:01:53;;;;;;;3.10;0.60;;;;;;;;;;10415313;28;20306;-76
2022/05/30 11:06:56;;;;;;;5.93;0.47;;;;;;;;;;10411510;28;20215;-77
2022/05/30 11:12:02;;;;;;;1.33;0.40;;;;;;;;;;10354861;28;20676;-77
2022/05/30 11:17:14;;;;;;;2.10;0.60;;;;;;;;;;10393797;28;20247;-77
2022/05/30 11:22:25;;;;;;;2.40;0.52;;;;;;;;;;10384713;28;20222;-76
2022/05/30 11:27:35;;;;;;;1.70;1.13;;;;;;;;;;10399450;28;20875;-77
2022/05/30 11:32:46;;;;;;;3.92;0.80;;;;;;;;;;10420792;28;20217;-77
2022/05/30 11:37:47;;;;;;;1.70;0.68;;;;;;;;;;10410991;28;20205;-76
2022/05/30 11:43:07;;;;;;;2.90;0.68;;;;;;;;;;10414593;28;20236;-77
2022/05/30 11:48:13;;;;;;;1.50;0.77;;;;;;;;;;10433476;28;20206;-76
2022/05/30 11:53:23;;;;;;;5.55;1.02;;;;;;;;;;10420837;28;20931;-77
2022/05/30 11:58:27;;;;;;;2.05;1.20;;;;;;;;;;10429518;28;20199;-77
2022/05/30 12:03:37;;;;;;;6.50;1.30;;;;;;;;;;10428477;28;20233;-77
2022/05/30 12:08:54;;;;;;;4.40;1.20;;;;;;;;;;10422714;28;20218;-77
2022/05/30 12:14:03;;;;;;;2.53;1.35;;;;;;;;;;10440542;28;20205;-77
2022/05/30 12:24:46;;;;;;;3.67;1.15;;;;;;;;;;10445328;28;20202;-78
2022/05/30 12:29:48;;;;;;;3.13;1.20;;;;;;;;;;10411682;28;20276;-77
2022/05/30 12:35:01;;;;;;;1.83;1.10;;;;;;;;;;10435783;28;20260;-77
2022/05/30 12:40:02;;;;;;;4.30;1.00;;;;;;;;;;10439684;28;20190;-77
2022/05/30 12:45:16;;;;;;;2.42;0.85;;;;;;;;;;10415089;28;20206;-77
2022/05/30 12:50:33;;;;;;;2.60;0.70;;;;;;;;;;10418454;28;20186;-77
2022/05/30 12:55:42;;;;;;;0.77;0.75;;;;;;;;;;10440340;28;20272;-76
2022/05/30 13:00:43;;;;;;;4.43;0.80;;;;;;;;;;10407503;28;20284;-76
2022/05/30 13:05:46;;;;;;;5.15;0.80;;;;;;;;;;10426055;28;20219;-76
2022/05/30 13:10:48;;;;;;;1.98;0.68;;;;;;;;;;10432139;28;20198;-76
2022/05/30 13:15:54;;;;;;;1.73;0.73;;;;;;;;;;10412292;28;20213;-76
2022/05/30 13:21:00;;;;;;;1.90;0.90;;;;;;;;;;10416028;28;20230;-76
2022/05/30 13:26:02;;;;;;;1.48;0.75;;;;;;;;;;10420788;28;20198;-76
2022/05/30 13:31:06;;;;;;;1.25;0.70;;;;;;;;;;10437295;28;20635;-78
2022/05/30 13:36:15;;;;;;;1.30;0.70;;;;;;;;;;10424763;28;20206;-78
2022/05/30 13:41:24;;;;;;;0.60;0.60;;;;;;;;;;10417945;28;20214;-78
2022/05/30 13:46:26;;;;;;;1.95;0.70;;;;;;;;;;10429012;28;20205;-78
2022/05/30 13:51:32;;;;;;;2.72;0.82;;;;;;;;;;10422203;28;20203;-77
2022/05/30 13:56:38;;;;;;;1.67;0.98;;;;;;;;;;10430403;28;20304;-78
2022/05/30 14:01:39;;;;;;;1.70;1.10;;;;;;;;;;10418385;28;20247;-78
2022/05/30 14:06:42;;;;;;;1.35;0.90;;;;;;;;;;10436247;28;20223;-78
2022/05/30 14:11:46;;;;;;;2.63;1.35;;;;;;;;;;10416737;28;20213;-78
2022/05/30 14:16:57;;;;;;;7.82;1.80;;;;;;;;;;10402501;28;20220;-78
2022/05/30 14:22:00;;;;;;;2.90;2.10;;;;;;;;;;10443572;28;20198;-78
2022/05/30 14:27:04;;;;;;;2.50;2.13;;;;;;;;;;10447063;28;20208;-77
2022/05/30 14:32:08;;;;;;;2.55;2.00;;;;;;;;;;10451080;28;20226;-76
2022/05/30 14:37:25;;;;;;;5.55;2.25;;;;;;;;;;10443389;28;20293;-76
2022/05/30 14:42:31;;;;;;;2.10;1.58;;;;;;;;;;10446171;28;20238;-77
2022/05/30 14:47:34;;;;;;;2.97;1.60;;;;;;;;;;10433013;28;20203;-76
2022/05/30 14:52:38;;;;;;;3.28;1.60;;;;;;;;;;10438736;28;20194;-76
2022/05/30 14:57:50;;;;;;;3.55;1.10;;;;;;;;;;10422690;28;20202;-76
2022/05/30 15:08:11;;;;;;;2.65;1.30;;;;;;;;;;10438749;28;20352;-76
2022/05/30 15:13:12;;;;;;;3.20;0.85;;;;;;;;;;10433356;28;20262;-77
2022/05/30 15:18:14;;;;;;;5.40;1.50;;;;;;;;;;10416312;28;20201;-77
2022/05/30 15:23:15;;;;;;;2.35;1.02;;;;;;;;;;10442568;28;20296;-76
2022/05/30 15:28:16;;;;;;;2.08;0.90;;;;;;;;;;10424556;28;20212;-76
2022/05/30 15:33:17;;;;;;;1.60;0.98;;;;;;;;;;10420393;28;20224;-76
2022/05/30 15:38:18;;;;;;;4.20;0.93;;;;;;;;;;10423179;28;20301;-76
2022/05/30 15:43:19;;;;;;;1.55;0.90;;;;;;;;;;10441068;28;20198;-76
2022/05/30 15:48:21;;;;;;;3.20;0.77;;;;;;;;;;10439176;28;20198;-76
2022/05/30 15:58:45;;;;;;;3.35;0.85;;;;;;;;;;10449775;28;20230;-79
2022/05/30 16:03:46;;;;;;;0.75;0.60;;;;;;;;;;10430502;28;20591;-78
2022/05/30 16:08:49;;;;;;;1.00;1.00;;;;;;;;;;10469765;28;20321;-78
2022/05/30 16:13:50;;;;;;;11.05;1.27;;;;;;;;;;10430297;28;20772;-78
2022/05/30 16:18:52;;;;;;;2.17;0.80;;;;;;;;;;10426494;28;20202;-78
2022/05/30 16:23:54;;;;;;;7.10;0.80;;;;;;;;;;10389049;28;20361;-78
2022/05/30 16:28:56;;;;;;;0.85;0.80;;;;;;;;;;10392805;28;20591;-77
2022/05/30 16:33:57;;;;;;;1.42;0.80;;;;;;;;;;10389910;28;20231;-77
2022/05/30 16:38:58;;;;;;;3.92;0.80;;;;;;;;;;10426035;28;20206;-74
2022/05/30 16:43:59;;;;;;;4.32;0.75;;;;;;;;;;10405588;28;20197;-75
2022/05/30 16:49:00;;;;;;;1.02;0.70;;;;;;;;;;10438691;28;20208;-75
2022/05/30 16:54:02;;;;;;;3.30;0.70;;;;;;;;;;10437574;28;20207;-77
2022/05/30 16:59:03;;;;;;;3.03;0.85;;;;;;;;;;10420163;28;20221;-77
2022/05/30 17:04:05;;;;;;;2.50;0.63;;;;;;;;;;10433888;28;20666;-77
2022/05/30 17:09:09;;;;;;;1.50;0.90;;;;;;;;;;10431481;28;20260;-77
2022/05/30 17:14:10;;;;;;;5.28;0.68;;;;;;;;;;10421990;28;21446;-77
2022/05/30 17:19:12;;;;;;;4.10;1.23;;;;;;;;;;10399534;28;20240;-77
2022/05/30 17:24:13;;;;;;;4.78;0.90;;;;;;;;;;10436748;28;21326;-77
2022/05/30 17:29:20;;;;;;;1.67;0.98;;;;;;;;;;10431967;28;20273;-77
2022/05/30 17:34:23;;;;;;;2.83;0.70;;;;;;;;;;10451223;28;20214;-77
2022/05/30 17:39:24;;;;;;;1.10;0.60;;;;;;;;;;10417206;28;20202;-77
2022/05/30 17:44:26;;;;;;;1.45;0.73;;;;;;;;;;10419117;28;20267;-77
2022/05/30 17:49:37;;;;;;;3.75;0.77;;;;;;;;;;10452786;28;20225;-77
2022/05/30 17:54:39;;;;;;;2.85;0.60;;;;;;;;;;10432717;28;22042;-78
2022/05/30 17:59:40;;;;;;;1.95;0.80;;;;;;;;;;10446192;28;20203;-76
2022/05/30 18:04:43;;;;;;;1.58;0.70;;;;;;;;;;10431909;28;20341;-75
2022/05/30 18:09:45;;;;;;;2.55;0.60;;;;;;;;;;10424663;28;20209;-75
2022/05/30 18:14:57;;;;;;;1.10;0.70;;;;;;;;;;10466012;28;20712;-77
2022/05/30 18:20:02;;;;;;;2.05;1.08;;;;;;;;;;10445566;28;20226;-78
2022/05/30 18:25:13;;;;;;;1.05;0.80;;;;;;;;;;10431780;28;20297;-78
2022/05/30 18:30:15;;;;;;;3.13;1.17;;;;;;;;;;10413444;28;20337;-78
2022/05/30 18:35:17;;;;;;;1.25;0.82;;;;;;;;;;10420063;28;20676;-78
2022/05/30 18:40:27;;;;;;;0.95;0.85;;;;;;;;;;10374921;28;20256;-78
2022/05/30 18:45:31;;;;;;;2.67;0.80;;;;;;;;;;10451401;28;20209;-78
2022/05/30 18:50:33;;;;;;;3.60;0.93;;;;;;;;;;10421948;28;20933;-75
2022/05/30 18:55:34;;;;;;;1.60;0.70;;;;;;;;;;10411314;28;20735;-77
2022/05/30 19:00:36;;;;;;;2.65;1.00;;;;;;;;;;10404828;28;20238;-75
2022/05/30 19:05:37;;;;;;;4.88;0.98;;;;;;;;;;10451589;28;20225;-75
2022/05/30 19:10:47;;;;;;;3.78;1.20;;;;;;;;;;10435913;28;20293;-75
2022/05/30 19:21:09;;;;;;;2.35;0.73;;;;;;;;;;10441834;28;20550;-76
2022/05/30 19:26:10;;;;;;;3.17;0.75;;;;;;;;;;10444705;28;20194;-75
2022/05/30 19:31:13;;;;;;;4.18;0.98;;;;;;;;;;10462082;28;20268;-75
2022/05/30 19:36:14;;;;;;;2.25;0.60;;;;;;;;;;10453076;28;20218;-75
2022/05/30 19:41:16;;;;;;;1.77;0.85;;;;;;;;;;10445726;28;20852;-75
2022/05/30 19:46:22;;;;;;;1.15;0.75;;;;;;;;;;10437421;28;20256;-74
2022/05/30 19:51:23;;;;;;;1.40;1.10;;;;;;;;;;10456992;28;20245;-74
2022/05/30 19:56:26;;;;;;;1.10;0.70;;;;;;;;;;10439005;28;21350;-74
2022/05/30 20:01:27;;;;;;;0.73;0.70;;;;;;;;;;10427339;28;20226;-74
2022/05/30 20:06:30;;;;;;;4.57;0.95;;;;;;;;;;10444248;28;20331;-76
2022/05/30 20:11:35;;;;;;;3.22;1.27;;;;;;;;;;10419520;28;21118;-74
2022/05/30 20:16:38;;;;;;;2.58;1.98;;;;;;;;;;10457498;28;20210;-76
2022/05/30 20:21:40;;;;;;;1.60;1.50;;;;;;;;;;10433667;28;20206;-75
2022/05/30 20:26:41;;;;;;;2.05;0.93;;;;;;;;;;10440141;28;20586;-75
2022/05/30 20:31:42;;;;;;;1.67;0.90;;;;;;;;;;10436498;28;20214;-76
2022/05/30 20:36:43;;;;;;;4.05;1.05;;;;;;;;;;10431613;28;20210;-76
2022/05/30 20:47:07;;;;;;;2.58;0.90;;;;;;;;;;10462803;28;20287;-75
2022/05/30 20:52:08;;;;;;;3.53;1.77;;;;;;;;;;10427661;28;20309;-75
2022/05/30 20:57:10;;;;;;;17.35;10.65;;;;;;;;;;10422743;28;20208;-75
2022/05/30 21:02:11;;;;;;;10.95;6.35;;;;;;;;;;10447318;28;20236;-75
2022/05/30 21:07:12;;;;;;;6.18;4.78;;;;;;;;;;10423142;28;20365;-76
2022/05/30 21:12:13;;;;;;;4.22;1.85;;;;;;;;;;10431449;28;20558;-75
2022/05/30 21:17:20;;;;;;;2.13;1.42;;;;;;;;;;10426494;28;20276;-74
2022/05/30 21:22:22;;;;;;;3.90;1.30;;;;;;;;;;10418792;28;20206;-75
2022/05/30 21:27:23;;;;;;;3.42;1.20;;;;;;;;;;10420753;28;20597;-74
2022/05/30 21:32:43;;;;;;;1.35;1.10;;;;;;;;;;10454489;28;20224;-75
2022/05/30 21:37:45;;;;;;;2.83;1.38;;;;;;;;;;10446581;28;20212;-76
2022/05/30 21:42:46;;;;;;;2.60;1.25;;;;;;;;;;10433785;28;20259;-75
2022/05/30 21:47:48;;;;;;;2.83;1.60;;;;;;;;;;10432336;28;20213;-75
2022/05/30 21:52:49;;;;;;;5.68;1.60;;;;;;;;;;10449108;28;20190;-76
2022/05/30 21:57:50;;;;;;;5.13;1.70;;;;;;;;;;10452983;28;20202;-75
2022/05/30 22:02:52;;;;;;;4.25;1.77;;;;;;;;;;10451663;28;20606;-75
2022/05/30 22:07:53;;;;;;;3.22;2.22;;;;;;;;;;10451219;28;20228;-75
2022/05/30 22:12:54;;;;;;;2.05;1.90;;;;;;;;;;10432026;28;20202;-74
2022/05/30 22:17:55;;;;;;;4.15;1.85;;;;;;;;;;10433553;28;20206;-75
2022/05/30 22:22:57;;;;;;;2.72;1.88;;;;;;;;;;10463767;28;20198;-74
2022/05/30 22:27:58;;;;;;;2.28;2.08;;;;;;;;;;10421045;28;20259;-75
2022/05/30 22:33:00;;;;;;;2.38;2.17;;;;;;;;;;10455573;28;20206;-74
2022/05/30 22:38:01;;;;;;;3.08;1.83;;;;;;;;;;10465779;28;20197;-75
2022/05/30 22:43:03;;;;;;;2.45;2.22;;;;;;;;;;10431606;28;20202;-75
2022/05/30 22:48:05;;;;;;;2.20;2.10;;;;;;;;;;10455147;28;20687;-75
2022/05/30 22:53:07;;;;;;;3.20;2.65;;;;;;;;;;10463822;28;20207;-75
2022/05/30 22:58:08;;;;;;;2.53;2.38;;;;;;;;;;10455503;28;20233;-74
2022/05/30 23:03:10;;;;;;;2.75;2.33;;;;;;;;;;10445672;28;20228;-76
2022/05/30 23:08:11;;;;;;;2.38;2.28;;;;;;;;;;10423498;28;20233;-75
2022/05/30 23:13:18;;;;;;;4.78;3.00;;;;;;;;;;10447438;28;20217;-75
2022/05/30 23:18:20;;;;;;;2.33;2.17;;;;;;;;;;10460104;28;20206;-76
2022/05/30 23:23:21;;;;;;;2.83;2.63;;;;;;;;;;10460901;28;20229;-75
2022/05/30 23:28:22;;;;;;;2.63;2.53;;;;;;;;;;10464551;28;20225;-75
2022/05/30 23:33:23;;;;;;;3.38;3.03;;;;;;;;;;10454226;28;21034;-75
2022/05/30 23:38:24;;;;;;;3.22;2.90;;;;;;;;;;10451861;28;20202;-76
2022/05/30 23:48:45;;;;;;;2.92;2.72;;;;;;;;;;10452697;28;20218;-75
2022/05/30 23:53:47;;;;;;;3.28;2.88;;;;;;;;;;10419049;28;20219;-75
2022/05/30 23:58:48;;;;;;;3.00;2.83;;;;;;;;;;10423134;28;20206;-76
